createdAt,value
2017-12-10T00:01:52.340Z,1.40
2017-12-10T00:04:19.929Z,1.40
2017-12-10T00:06:47.489Z,1.50
2017-12-10T00:09:15.009Z,1.50
2017-12-10T00:11:42.486Z,1.50
2017-12-10T00:14:10.790Z,1.50
2017-12-10T00:16:38.277Z,1.50
2017-12-10T00:19:05.764Z,1.50
2017-12-10T00:21:33.263Z,1.50
2017-12-10T00:24:00.743Z,1.50
2017-12-10T00:26:28.232Z,1.50
2017-12-10T00:28:55.735Z,1.50
2017-12-10T00:31:23.255Z,1.50
2017-12-10T00:33:50.733Z,1.50
2017-12-10T00:36:19.018Z,1.50
2017-12-10T00:38:46.525Z,1.50
2017-12-10T00:41:14.013Z,1.50
2017-12-10T00:43:42.315Z,1.50
2017-12-10T00:46:09.813Z,1.50
2017-12-10T00:48:37.443Z,1.50
2017-12-10T00:51:04.956Z,1.50
2017-12-10T00:53:32.469Z,1.50
2017-12-10T00:55:59.954Z,1.50
2017-12-10T00:58:27.465Z,1.40
2017-12-10T01:00:55.714Z,1.40
2017-12-10T01:03:23.186Z,1.40
2017-12-10T01:05:51.462Z,1.40
2017-12-10T01:08:19.733Z,1.40
2017-12-10T01:10:48.029Z,1.40
2017-12-10T01:13:16.306Z,1.40
2017-12-10T01:15:44.592Z,1.40
2017-12-10T01:18:12.076Z,1.40
2017-12-10T01:20:39.585Z,1.40
2017-12-10T01:23:07.837Z,1.40
2017-12-10T01:25:35.435Z,1.40
2017-12-10T01:28:03.825Z,1.40
2017-12-10T01:30:31.523Z,1.40
2017-12-10T01:32:59.017Z,1.40
2017-12-10T01:35:27.290Z,1.30
2017-12-10T01:37:55.613Z,1.40
2017-12-10T01:40:23.098Z,1.40
2017-12-10T01:42:50.718Z,1.40
2017-12-10T01:45:18.290Z,1.30
2017-12-10T01:47:45.772Z,1.30
2017-12-10T01:50:13.273Z,1.30
2017-12-10T01:52:41.513Z,1.30
2017-12-10T01:55:08.998Z,1.30
2017-12-10T01:57:36.501Z,1.30
2017-12-10T02:00:03.984Z,1.30
2017-12-10T02:02:31.510Z,1.20
2017-12-10T02:04:59.015Z,1.20
2017-12-10T02:07:26.495Z,1.20
2017-12-10T02:09:54.741Z,1.20
2017-12-10T02:12:22.253Z,1.20
2017-12-10T02:14:49.793Z,1.20
2017-12-10T02:17:18.074Z,1.20
2017-12-10T02:19:46.449Z,1.20
2017-12-10T02:22:15.497Z,1.10
2017-12-10T02:24:43.008Z,1.10
2017-12-10T02:27:11.284Z,1.10
2017-12-10T02:29:38.788Z,1.10
2017-12-10T02:32:06.305Z,1.10
2017-12-10T02:34:33.821Z,1.00
2017-12-10T02:37:02.082Z,1.00
2017-12-10T02:39:29.572Z,0.90
2017-12-10T02:41:57.081Z,0.90
2017-12-10T02:44:24.566Z,0.90
2017-12-10T02:46:52.049Z,0.90
2017-12-10T02:49:20.321Z,0.80
2017-12-10T02:51:48.630Z,0.80
2017-12-10T02:54:16.843Z,0.80
2017-12-10T02:56:44.353Z,0.80
2017-12-10T02:59:12.636Z,0.70
2017-12-10T03:01:40.189Z,0.70
2017-12-10T03:04:08.465Z,0.70
2017-12-10T03:06:36.741Z,0.70
2017-12-10T03:09:05.416Z,0.60
2017-12-10T03:11:33.693Z,0.60
2017-12-10T03:14:01.935Z,0.60
2017-12-10T03:16:29.424Z,0.50
2017-12-10T03:18:57.700Z,0.50
2017-12-10T03:21:26.732Z,0.50
2017-12-10T03:23:54.218Z,0.50
2017-12-10T03:26:21.805Z,0.50
2017-12-10T03:28:49.291Z,0.50
2017-12-10T03:31:16.769Z,0.40
2017-12-10T03:33:44.272Z,0.40
2017-12-10T03:36:11.756Z,0.40
2017-12-10T03:38:40.012Z,0.30
2017-12-10T03:41:07.522Z,0.30
2017-12-10T03:43:35.016Z,0.30
2017-12-10T03:46:02.608Z,0.30
2017-12-10T03:48:30.893Z,0.30
2017-12-10T03:50:58.369Z,0.20
2017-12-10T03:53:25.863Z,0.30
2017-12-10T03:55:53.468Z,0.20
2017-12-10T03:58:21.016Z,0.20
2017-12-10T04:00:49.292Z,0.20
2017-12-10T04:03:17.554Z,0.20
2017-12-10T04:05:45.130Z,0.10
2017-12-10T04:08:13.453Z,0.10
2017-12-10T04:10:40.961Z,0.10
2017-12-10T04:13:09.217Z,0.10
2017-12-10T04:15:36.693Z,0.10
2017-12-10T04:18:04.968Z,0.10
2017-12-10T04:20:33.225Z,0.00
2017-12-10T04:23:00.719Z,0.00
2017-12-10T04:25:28.230Z,0.00
2017-12-10T04:27:55.723Z,0.00
2017-12-10T04:30:23.977Z,-0.10
2017-12-10T04:32:51.493Z,-0.10
2017-12-10T04:35:18.981Z,-0.10
2017-12-10T04:37:46.591Z,-0.10
2017-12-10T04:40:15.105Z,-0.10
2017-12-10T04:42:42.642Z,-0.10
2017-12-10T04:45:10.197Z,-0.10
2017-12-10T04:47:37.720Z,-0.10
2017-12-10T04:50:05.212Z,-0.10
2017-12-10T04:52:32.712Z,-0.10
2017-12-10T04:55:00.239Z,-0.20
2017-12-10T04:57:27.728Z,-0.10
2017-12-10T04:59:55.234Z,-0.10
2017-12-10T05:02:23.528Z,-0.20
2017-12-10T05:04:51.013Z,-0.20
2017-12-10T05:07:18.529Z,-0.20
2017-12-10T05:09:46.907Z,-0.30
2017-12-10T05:12:14.588Z,-0.30
2017-12-10T05:14:42.079Z,-0.30
2017-12-10T05:17:09.689Z,-0.30
2017-12-10T05:19:37.949Z,-0.30
2017-12-10T05:22:06.211Z,-0.30
2017-12-10T05:24:33.757Z,-0.30
2017-12-10T05:27:02.066Z,-0.30
2017-12-10T05:29:30.320Z,-0.30
2017-12-10T05:31:57.909Z,-0.30
2017-12-10T05:34:26.157Z,-0.30
2017-12-10T05:36:53.673Z,-0.30
2017-12-10T05:39:21.200Z,-0.30
2017-12-10T05:41:49.456Z,-0.30
2017-12-10T05:44:17.052Z,-0.40
2017-12-10T05:46:44.577Z,-0.40
2017-12-10T05:49:12.838Z,-0.40
2017-12-10T05:51:40.345Z,-0.40
2017-12-10T05:54:07.868Z,-0.40
2017-12-10T05:56:35.455Z,-0.50
2017-12-10T05:59:03.707Z,-0.50
2017-12-10T06:01:31.332Z,-0.50
2017-12-10T06:03:58.842Z,-0.50
2017-12-10T06:06:27.128Z,-0.50
2017-12-10T06:08:54.651Z,-0.50
2017-12-10T06:11:22.140Z,-0.50
2017-12-10T06:13:50.406Z,-0.50
2017-12-10T06:16:18.701Z,-0.60
2017-12-10T06:18:46.193Z,-0.60
2017-12-10T06:21:13.672Z,-0.60
2017-12-10T06:23:41.176Z,-0.60
2017-12-10T06:26:08.726Z,-0.60
2017-12-10T06:28:36.989Z,-0.60
2017-12-10T06:31:05.266Z,-0.60
2017-12-10T06:33:33.522Z,-0.70
2017-12-10T06:36:01.008Z,-0.70
2017-12-10T06:38:29.280Z,-0.60
2017-12-10T06:40:57.542Z,-0.70
2017-12-10T06:43:25.026Z,-0.70
2017-12-10T06:45:53.310Z,-0.70
2017-12-10T06:48:20.860Z,-0.70
2017-12-10T06:50:49.117Z,-0.70
2017-12-10T06:53:17.396Z,-0.70
2017-12-10T06:55:45.695Z,-0.70
2017-12-10T06:58:13.204Z,-0.70
2017-12-10T07:00:40.812Z,-0.70
2017-12-10T07:03:08.301Z,-0.70
2017-12-10T07:05:35.789Z,-0.70
2017-12-10T07:08:03.297Z,-0.70
2017-12-10T07:10:30.833Z,-0.70
2017-12-10T07:12:59.118Z,-0.70
2017-12-10T07:15:26.684Z,-0.70
2017-12-10T07:17:54.174Z,-0.70
2017-12-10T07:20:21.703Z,-0.60
2017-12-10T07:22:49.209Z,-0.70
2017-12-10T07:25:16.703Z,-0.60
2017-12-10T07:27:44.965Z,-0.60
2017-12-10T07:30:12.483Z,-0.60
2017-12-10T07:32:39.970Z,-0.60
2017-12-10T07:35:07.465Z,-0.60
2017-12-10T07:37:34.976Z,-0.60
2017-12-10T07:40:02.473Z,-0.60
2017-12-10T07:42:29.968Z,-0.60
2017-12-10T07:44:57.475Z,-0.50
2017-12-10T07:47:25.737Z,-0.50
2017-12-10T07:49:53.224Z,-0.50
2017-12-10T07:52:21.497Z,-0.50
2017-12-10T07:54:49.749Z,-0.40
2017-12-10T07:57:17.236Z,-0.50
2017-12-10T07:59:45.507Z,-0.40
2017-12-10T08:02:13.767Z,-0.40
2017-12-10T08:04:41.270Z,-0.40
2017-12-10T08:07:08.793Z,-0.30
2017-12-10T08:09:37.069Z,-0.20
2017-12-10T08:12:05.348Z,-0.10
2017-12-10T08:14:33.662Z,0.00
2017-12-10T08:17:01.140Z,0.00
2017-12-10T08:19:28.685Z,0.10
2017-12-10T08:21:56.219Z,0.20
2017-12-10T08:24:23.726Z,0.50
2017-12-10T08:26:51.199Z,0.60
2017-12-10T08:29:19.468Z,1.00
2017-12-10T08:31:46.956Z,1.00
2017-12-10T08:34:15.240Z,1.20
2017-12-10T08:36:42.762Z,1.10
2017-12-10T08:39:10.250Z,1.20
2017-12-10T08:41:38.513Z,1.20
2017-12-10T08:44:06.776Z,1.30
2017-12-10T08:46:34.256Z,1.30
2017-12-10T08:49:02.504Z,1.50
2017-12-10T08:51:30.020Z,1.50
2017-12-10T08:53:58.022Z,1.50
2017-12-10T08:56:25.567Z,1.60
2017-12-10T08:58:53.802Z,1.90
2017-12-10T09:01:21.298Z,1.90
2017-12-10T09:03:48.800Z,2.10
2017-12-10T09:06:17.079Z,2.40
2017-12-10T09:08:45.360Z,2.60
2017-12-10T09:11:13.617Z,2.80
2017-12-10T09:13:41.135Z,2.70
2017-12-10T09:16:08.620Z,3.00
2017-12-10T09:18:36.105Z,3.20
2017-12-10T09:21:03.741Z,3.40
2017-12-10T09:23:32.014Z,3.70
2017-12-10T09:25:59.503Z,3.70
2017-12-10T09:28:27.836Z,3.90
2017-12-10T09:30:55.339Z,3.90
2017-12-10T09:33:22.853Z,4.10
2017-12-10T09:35:50.355Z,4.30
2017-12-10T09:38:17.868Z,4.40
2017-12-10T09:40:45.389Z,4.70
2017-12-10T09:43:12.970Z,4.80
2017-12-10T09:45:40.500Z,5.40
2017-12-10T09:48:08.811Z,5.00
2017-12-10T09:50:36.321Z,5.00
2017-12-10T09:53:04.575Z,5.50
2017-12-10T09:55:32.061Z,5.50
2017-12-10T09:58:00.344Z,5.80
2017-12-10T10:00:28.628Z,6.00
2017-12-10T10:02:56.118Z,6.00
2017-12-10T10:05:23.624Z,6.40
2017-12-10T10:07:51.876Z,6.50
2017-12-10T10:10:19.391Z,6.40
2017-12-10T10:12:47.686Z,6.40
2017-12-10T10:15:15.172Z,6.30
2017-12-10T10:17:42.656Z,6.40
2017-12-10T10:20:10.949Z,6.20
2017-12-10T10:22:38.433Z,6.10
2017-12-10T10:25:05.933Z,5.90
2017-12-10T10:27:33.444Z,5.50
2017-12-10T10:30:01.019Z,5.10
2017-12-10T10:32:28.540Z,5.10
2017-12-10T10:34:56.082Z,5.50
2017-12-10T10:37:24.349Z,5.90
2017-12-10T10:39:51.832Z,5.80
2017-12-10T10:42:20.108Z,5.70
2017-12-10T10:44:48.361Z,5.30
2017-12-10T10:47:16.632Z,5.10
2017-12-10T10:49:44.141Z,5.10
2017-12-10T10:52:11.688Z,5.00
2017-12-10T10:54:39.355Z,4.80
2017-12-10T10:57:06.855Z,4.70
2017-12-10T10:59:34.389Z,4.40
2017-12-10T11:02:01.964Z,4.40
2017-12-10T11:04:29.465Z,4.20
2017-12-10T11:06:57.778Z,4.10
2017-12-10T11:09:25.260Z,4.00
2017-12-10T11:11:52.756Z,4.00
2017-12-10T11:14:21.146Z,4.10
2017-12-10T11:16:48.658Z,4.00
2017-12-10T11:19:16.249Z,4.10
2017-12-10T11:21:43.936Z,4.20
2017-12-10T11:24:11.500Z,4.40
2017-12-10T11:26:39.010Z,4.60
2017-12-10T11:29:06.545Z,4.70
2017-12-10T11:31:34.124Z,4.80
2017-12-10T11:34:01.736Z,4.70
2017-12-10T11:36:29.215Z,4.90
2017-12-10T11:38:59.260Z,4.90
2017-12-10T11:41:28.341Z,4.80
2017-12-10T11:43:55.831Z,4.80
2017-12-10T11:46:23.312Z,4.60
2017-12-10T11:48:51.681Z,4.20
2017-12-10T11:51:19.930Z,3.90
2017-12-10T11:53:47.437Z,3.90
2017-12-10T11:56:15.116Z,3.60
2017-12-10T11:58:42.610Z,3.50
2017-12-10T12:01:10.110Z,3.60
2017-12-10T12:03:37.625Z,3.90
2017-12-10T12:06:05.108Z,3.90
2017-12-10T12:08:32.608Z,4.10
2017-12-10T12:11:00.116Z,4.20
2017-12-10T12:13:28.371Z,3.90
2017-12-10T12:15:55.857Z,3.90
2017-12-10T12:18:24.143Z,3.60
2017-12-10T12:20:52.437Z,3.40
2017-12-10T12:23:19.920Z,3.40
2017-12-10T12:25:47.436Z,3.40
2017-12-10T12:28:15.688Z,3.40
2017-12-10T12:30:43.181Z,3.40
2017-12-10T12:33:10.680Z,3.10
2017-12-10T12:35:38.179Z,3.10
2017-12-10T12:38:06.462Z,2.90
2017-12-10T12:40:34.756Z,2.80
2017-12-10T12:43:02.245Z,2.80
2017-12-10T12:45:29.742Z,2.70
2017-12-10T12:47:57.311Z,2.60
2017-12-10T12:50:25.563Z,2.60
2017-12-10T12:52:53.154Z,2.60
2017-12-10T12:55:20.657Z,2.50
2017-12-10T12:57:48.137Z,2.30
2017-12-10T13:00:15.727Z,2.40
2017-12-10T13:02:43.992Z,2.20
2017-12-10T13:05:12.245Z,2.10
2017-12-10T13:07:40.544Z,2.10
2017-12-10T13:10:08.839Z,2.10
2017-12-10T13:12:36.320Z,2.00
2017-12-10T13:15:03.804Z,2.00
2017-12-10T13:17:31.310Z,2.00
2017-12-10T13:19:59.558Z,1.90
2017-12-10T13:22:28.592Z,1.90
2017-12-10T13:24:56.112Z,1.90
2017-12-10T13:27:24.371Z,1.90
2017-12-10T13:29:51.869Z,1.90
2017-12-10T13:32:20.152Z,1.70
2017-12-10T13:34:47.643Z,1.70
2017-12-10T13:37:15.157Z,1.60
2017-12-10T13:39:43.447Z,1.60
2017-12-10T13:42:11.007Z,1.60
2017-12-10T13:44:38.503Z,1.60
2017-12-10T13:47:06.058Z,1.50
2017-12-10T13:49:33.581Z,1.40
2017-12-10T13:52:01.109Z,1.40
2017-12-10T13:54:28.646Z,1.40
2017-12-10T13:56:56.143Z,1.40
2017-12-10T13:59:24.409Z,1.20
2017-12-10T14:01:52.026Z,1.30
2017-12-10T14:04:19.861Z,1.20
2017-12-10T14:06:47.344Z,1.20
2017-12-10T14:09:14.862Z,1.20
2017-12-10T14:11:43.403Z,1.10
2017-12-10T14:14:10.908Z,1.10
2017-12-10T14:16:39.183Z,1.00
2017-12-10T14:19:07.440Z,0.90
2017-12-10T14:21:34.984Z,0.90
2017-12-10T14:24:02.489Z,0.90
2017-12-10T14:26:29.984Z,0.80
2017-12-10T14:28:57.464Z,0.80
2017-12-10T14:31:25.026Z,0.90
2017-12-10T14:33:52.471Z,0.80
2017-12-10T14:36:19.987Z,0.80
2017-12-10T14:38:47.538Z,0.80
2017-12-10T14:41:15.044Z,0.80
2017-12-10T14:43:42.553Z,0.80
2017-12-10T14:46:10.827Z,0.80
2017-12-10T14:48:38.413Z,0.80
2017-12-10T14:51:05.903Z,0.80
2017-12-10T14:53:33.406Z,0.70
2017-12-10T14:56:00.966Z,0.70
2017-12-10T14:58:28.509Z,0.70
2017-12-10T15:00:56.785Z,0.70
2017-12-10T15:03:25.028Z,0.80
2017-12-10T15:05:52.539Z,0.70
2017-12-10T15:08:20.048Z,0.80
2017-12-10T15:10:47.554Z,0.70
2017-12-10T15:13:15.051Z,0.70
2017-12-10T15:15:42.548Z,0.70
2017-12-10T15:18:10.796Z,0.70
2017-12-10T15:20:38.276Z,0.70
2017-12-10T15:23:05.780Z,0.70
2017-12-10T15:25:33.269Z,0.70
2017-12-10T15:28:00.749Z,0.70
2017-12-10T15:30:29.005Z,0.70
2017-12-10T15:32:56.489Z,0.70
2017-12-10T15:35:24.748Z,0.70
2017-12-10T15:37:52.337Z,0.70
2017-12-10T15:40:20.592Z,0.70
2017-12-10T15:42:48.693Z,0.70
2017-12-10T15:45:17.114Z,0.70
2017-12-10T15:47:44.612Z,0.70
2017-12-10T15:50:12.861Z,0.70
2017-12-10T15:52:40.381Z,0.70
2017-12-10T15:55:07.865Z,0.70
2017-12-10T15:57:35.346Z,0.70
2017-12-10T16:00:02.861Z,0.70
2017-12-10T16:02:30.352Z,0.80
2017-12-10T16:04:57.852Z,0.80
2017-12-10T16:07:25.430Z,0.70
2017-12-10T16:09:53.645Z,0.70
2017-12-10T16:12:21.134Z,0.70
2017-12-10T16:14:49.406Z,0.80
2017-12-10T16:17:17.701Z,0.90
2017-12-10T16:19:45.192Z,0.80
2017-12-10T16:22:12.712Z,0.90
2017-12-10T16:24:40.973Z,0.90
2017-12-10T16:27:09.231Z,1.30
2017-12-10T16:29:36.757Z,1.30
2017-12-10T16:32:04.296Z,1.60
2017-12-10T16:34:31.843Z,1.40
2017-12-10T16:37:00.229Z,0.90
2017-12-10T16:39:27.780Z,0.90
2017-12-10T16:41:56.044Z,0.60
2017-12-10T16:44:24.314Z,0.40
2017-12-10T16:46:52.567Z,0.20
2017-12-10T16:49:21.104Z,0.30
2017-12-10T16:51:48.621Z,0.10
2017-12-10T16:54:16.225Z,-0.10
2017-12-10T16:56:43.717Z,-0.20
2017-12-10T16:59:12.010Z,-0.40
2017-12-10T17:01:39.500Z,-0.40
2017-12-10T17:04:07.769Z,-0.40
2017-12-10T17:06:36.049Z,-0.40
2017-12-10T17:09:04.305Z,-0.40
2017-12-10T17:11:31.918Z,-0.40
2017-12-10T17:13:59.430Z,-0.40
2017-12-10T17:16:27.695Z,-0.40
2017-12-10T17:18:55.181Z,-0.50
2017-12-10T17:21:23.573Z,-0.50
2017-12-10T17:23:51.148Z,-0.50
2017-12-10T17:26:18.688Z,-0.50
2017-12-10T17:28:46.191Z,-0.50
2017-12-10T17:31:13.705Z,-0.50
2017-12-10T17:33:41.219Z,-0.50
2017-12-10T17:36:08.813Z,-0.50
2017-12-10T17:38:37.089Z,-0.60
2017-12-10T17:41:05.348Z,-0.60
2017-12-10T17:43:33.637Z,-0.60
2017-12-10T17:46:01.897Z,-0.50
2017-12-10T17:48:29.393Z,-0.50
2017-12-10T17:50:56.947Z,-0.50
2017-12-10T17:53:24.443Z,-0.50
2017-12-10T17:55:51.949Z,-0.50
2017-12-10T17:58:20.331Z,-0.40
2017-12-10T18:00:48.608Z,-0.30
2017-12-10T18:03:16.874Z,-0.30
2017-12-10T18:05:45.183Z,-0.50
2017-12-10T18:08:12.698Z,-0.50
2017-12-10T18:10:40.189Z,-0.50
2017-12-10T18:13:07.732Z,-0.50
2017-12-10T18:15:35.989Z,0.60
2017-12-10T18:18:03.479Z,0.50
2017-12-10T18:20:31.141Z,0.10
2017-12-10T18:22:58.746Z,-0.10
2017-12-10T18:25:26.314Z,-0.30
2017-12-10T18:27:53.895Z,-0.40
2017-12-10T18:30:22.226Z,-0.50
2017-12-10T18:32:49.742Z,-0.50
2017-12-10T18:35:18.024Z,-0.60
2017-12-10T18:37:46.311Z,-0.60
2017-12-10T18:40:13.862Z,-0.60
2017-12-10T18:42:42.153Z,-0.60
2017-12-10T18:45:09.642Z,-0.60
2017-12-10T18:47:37.172Z,-0.60
2017-12-10T18:50:04.723Z,-0.60
2017-12-10T18:52:32.285Z,-0.50
2017-12-10T18:54:59.796Z,-0.50
2017-12-10T18:57:27.334Z,-0.50
2017-12-10T18:59:54.837Z,-0.50
2017-12-10T19:02:23.146Z,-0.50
2017-12-10T19:04:51.026Z,-0.50
2017-12-10T19:07:18.581Z,-0.50
2017-12-10T19:09:46.145Z,-0.50
2017-12-10T19:12:13.917Z,-0.60
2017-12-10T19:14:41.490Z,-0.50
2017-12-10T19:17:09.025Z,-0.50
2017-12-10T19:19:36.556Z,-0.50
2017-12-10T19:22:04.082Z,-0.50
2017-12-10T19:24:32.365Z,-0.50
2017-12-10T19:26:59.889Z,-0.50
2017-12-10T19:29:27.388Z,-0.30
2017-12-10T19:31:55.018Z,-0.40
2017-12-10T19:34:22.673Z,-0.40
2017-12-10T19:36:50.181Z,-0.30
2017-12-10T19:39:18.472Z,-0.40
2017-12-10T19:41:46.012Z,-0.40
2017-12-10T19:44:14.316Z,-0.40
2017-12-10T19:46:41.886Z,-0.40
2017-12-10T19:49:09.413Z,-0.30
2017-12-10T19:51:37.693Z,-0.30
2017-12-10T19:54:05.969Z,-0.30
2017-12-10T19:56:34.403Z,-0.30
2017-12-10T19:59:02.745Z,-0.20
2017-12-10T20:01:30.317Z,-0.20
2017-12-10T20:03:59.693Z,-0.20
2017-12-10T20:06:27.985Z,-0.10
2017-12-10T20:08:55.542Z,-0.20
2017-12-10T20:11:23.106Z,-0.10
2017-12-10T20:13:50.599Z,-0.10
2017-12-10T20:16:18.319Z,-0.10
2017-12-10T20:18:45.841Z,0.00
2017-12-10T20:21:13.377Z,0.00
2017-12-10T20:23:40.896Z,0.00
2017-12-10T20:26:08.468Z,0.00
2017-12-10T20:28:36.051Z,0.10
2017-12-10T20:31:04.405Z,0.10
2017-12-10T20:33:31.919Z,0.10
2017-12-10T20:35:59.634Z,0.20
2017-12-10T20:38:27.140Z,0.20
2017-12-10T20:40:55.475Z,0.30
2017-12-10T20:43:23.014Z,0.30
2017-12-10T20:45:50.589Z,0.40
2017-12-10T20:48:18.097Z,0.40
2017-12-10T20:50:47.078Z,0.30
2017-12-10T20:53:14.643Z,0.40
2017-12-10T20:55:42.271Z,0.40
2017-12-10T20:58:09.808Z,0.40
2017-12-10T21:00:37.406Z,0.40
2017-12-10T21:03:05.754Z,0.50
2017-12-10T21:05:33.289Z,0.40
2017-12-10T21:08:00.900Z,0.50
2017-12-10T21:10:29.217Z,0.50
2017-12-10T21:12:57.513Z,0.50
2017-12-10T21:15:25.104Z,0.50
2017-12-10T21:17:53.457Z,0.60
2017-12-10T21:20:21.029Z,0.60
2017-12-10T21:22:48.587Z,0.60
2017-12-10T21:25:16.434Z,0.70
2017-12-10T21:27:44.011Z,0.70
2017-12-10T21:30:11.517Z,0.80
2017-12-10T21:32:39.839Z,0.90
2017-12-10T21:35:07.396Z,0.80
2017-12-10T21:37:34.981Z,0.90
2017-12-10T21:40:02.629Z,1.00
2017-12-10T21:42:30.199Z,1.00
2017-12-10T21:44:57.816Z,1.10
2017-12-10T21:47:25.451Z,1.10
2017-12-10T21:49:53.760Z,1.30
2017-12-10T21:52:21.290Z,1.30
2017-12-10T21:54:48.858Z,1.30
2017-12-10T21:57:17.157Z,1.40
2017-12-10T21:59:45.453Z,1.40
2017-12-10T22:02:12.984Z,1.40
2017-12-10T22:04:40.525Z,1.40
2017-12-10T22:07:08.125Z,1.40
2017-12-10T22:09:35.676Z,1.40
2017-12-10T22:12:03.206Z,1.40
2017-12-10T22:14:31.576Z,1.40
2017-12-10T22:16:59.905Z,1.40
2017-12-10T22:19:27.409Z,1.40
2017-12-10T22:21:54.969Z,1.40
2017-12-10T22:24:22.684Z,1.30
2017-12-10T22:26:50.165Z,1.30
2017-12-10T22:29:17.738Z,1.30
2017-12-10T22:31:45.421Z,1.30
2017-12-10T22:34:12.937Z,1.20
2017-12-10T22:36:40.423Z,1.30
2017-12-10T22:39:07.925Z,1.40
2017-12-10T22:41:36.178Z,1.50
2017-12-10T22:44:04.434Z,1.60
2017-12-10T22:46:32.079Z,1.60
2017-12-10T22:48:59.611Z,1.60
2017-12-10T22:51:27.108Z,1.50
2017-12-10T22:53:54.709Z,1.50
2017-12-10T22:56:23.029Z,1.60
2017-12-10T22:58:50.521Z,1.60
2017-12-10T23:01:18.818Z,1.70
2017-12-10T23:03:47.156Z,1.70
2017-12-10T23:06:14.641Z,1.70
2017-12-10T23:08:42.948Z,1.80
2017-12-10T23:11:10.588Z,1.80
2017-12-10T23:13:49.716Z,1.70
2017-12-10T23:16:32.024Z,1.70
2017-12-10T23:19:00.313Z,1.70
2017-12-10T23:21:28.665Z,1.70
2017-12-10T23:23:56.244Z,1.60
2017-12-10T23:26:24.634Z,1.70
2017-12-10T23:28:52.189Z,1.70
2017-12-10T23:31:19.768Z,1.70
2017-12-10T23:33:47.266Z,1.70
2017-12-10T23:36:14.765Z,1.70
2017-12-10T23:38:43.169Z,1.80
2017-12-10T23:41:10.696Z,1.80
2017-12-10T23:43:38.376Z,1.80
2017-12-10T23:46:05.988Z,1.90
2017-12-10T23:48:33.687Z,2.00
2017-12-10T23:51:01.999Z,2.10
2017-12-10T23:53:29.506Z,2.10
2017-12-10T23:55:57.032Z,2.20
2017-12-10T23:58:24.539Z,2.30
